sensor_id;sensor_type;location;lat;lon;timestamp;temperature;humidity
11003;DHT22;5554;55.796;13.090;2022-07-17T00:01:26;12.80;99.90
11003;DHT22;5554;55.796;13.090;2022-07-17T00:03:53;12.80;99.90
11003;DHT22;5554;55.796;13.090;2022-07-17T00:06:21;12.70;99.90
11003;DHT22;5554;55.796;13.090;2022-07-17T00:08:48;12.70;99.90
11003;DHT22;5554;55.796;13.090;2022-07-17T00:11:15;12.60;99.90
11003;DHT22;5554;55.796;13.090;2022-07-17T00:13:42;12.60;99.90
11003;DHT22;5554;55.796;13.090;2022-07-17T00:16:09;12.50;99.90
11003;DHT22;5554;55.796;13.090;2022-07-17T00:18:37;12.40;99.90
11003;DHT22;5554;55.796;13.090;2022-07-17T00:21:04;12.40;99.90
11003;DHT22;5554;55.796;13.090;2022-07-17T00:23:32;12.40;99.90
11003;DHT22;5554;55.796;13.090;2022-07-17T00:25:59;12.40;99.90
11003;DHT22;5554;55.796;13.090;2022-07-17T00:28:26;12.40;99.90
11003;DHT22;5554;55.796;13.090;2022-07-17T00:30:53;12.30;99.90
11003;DHT22;5554;55.796;13.090;2022-07-17T00:33:20;12.40;99.90
11003;DHT22;5554;55.796;13.090;2022-07-17T00:35:47;12.40;99.90
11003;DHT22;5554;55.796;13.090;2022-07-17T00:38:13;12.40;99.90
11003;DHT22;5554;55.796;13.090;2022-07-17T00:40:42;12.50;99.90
11003;DHT22;5554;55.796;13.090;2022-07-17T00:43:09;12.60;99.90
11003;DHT22;5554;55.796;13.090;2022-07-17T00:45:36;12.70;99.90
11003;DHT22;5554;55.796;13.090;2022-07-17T00:48:04;12.80;99.90
11003;DHT22;5554;55.796;13.090;2022-07-17T00:50:33;12.80;99.90
11003;DHT22;5554;55.796;13.090;2022-07-17T00:53:00;12.90;99.90
11003;DHT22;5554;55.796;13.090;2022-07-17T00:55:29;12.90;99.90
11003;DHT22;5554;55.796;13.090;2022-07-17T00:58:00;13.00;99.90
11003;DHT22;5554;55.796;13.090;2022-07-17T01:00:28;13.00;99.90
11003;DHT22;5554;55.796;13.090;2022-07-17T01:02:56;13.20;99.90
11003;DHT22;5554;55.796;13.090;2022-07-17T01:05:23;13.10;99.90
11003;DHT22;5554;55.796;13.090;2022-07-17T01:07:51;13.20;99.90
11003;DHT22;5554;55.796;13.090;2022-07-17T01:10:19;13.30;99.90
11003;DHT22;5554;55.796;13.090;2022-07-17T01:12:46;13.30;99.90
11003;DHT22;5554;55.796;13.090;2022-07-17T01:15:16;13.40;99.90
11003;DHT22;5554;55.796;13.090;2022-07-17T01:17:43;13.30;99.90
11003;DHT22;5554;55.796;13.090;2022-07-17T01:20:11;13.30;99.90
11003;DHT22;5554;55.796;13.090;2022-07-17T01:22:43;13.40;99.90
11003;DHT22;5554;55.796;13.090;2022-07-17T01:25:11;13.30;99.90
11003;DHT22;5554;55.796;13.090;2022-07-17T01:27:38;13.30;99.90
11003;DHT22;5554;55.796;13.090;2022-07-17T01:30:07;13.40;99.90
11003;DHT22;5554;55.796;13.090;2022-07-17T01:32:35;13.40;99.90
11003;DHT22;5554;55.796;13.090;2022-07-17T01:35:03;13.50;99.90
11003;DHT22;5554;55.796;13.090;2022-07-17T01:37:30;13.50;99.90
11003;DHT22;5554;55.796;13.090;2022-07-17T01:40:00;13.50;99.90
11003;DHT22;5554;55.796;13.090;2022-07-17T01:42:27;13.50;99.90
11003;DHT22;5554;55.796;13.090;2022-07-17T01:44:55;13.50;99.90
11003;DHT22;5554;55.796;13.090;2022-07-17T01:47:23;13.50;99.90
11003;DHT22;5554;55.796;13.090;2022-07-17T01:49:51;13.40;99.90
11003;DHT22;5554;55.796;13.090;2022-07-17T01:52:19;13.40;99.90
11003;DHT22;5554;55.796;13.090;2022-07-17T01:54:46;13.40;99.90
11003;DHT22;5554;55.796;13.090;2022-07-17T01:57:14;13.40;99.90
11003;DHT22;5554;55.796;13.090;2022-07-17T01:59:41;13.40;99.90
11003;DHT22;5554;55.796;13.090;2022-07-17T02:02:09;13.40;99.90
11003;DHT22;5554;55.796;13.090;2022-07-17T02:04:38;13.40;99.90
11003;DHT22;5554;55.796;13.090;2022-07-17T02:07:07;13.40;99.90
11003;DHT22;5554;55.796;13.090;2022-07-17T02:09:35;13.40;99.90
11003;DHT22;5554;55.796;13.090;2022-07-17T02:12:02;13.40;99.90
11003;DHT22;5554;55.796;13.090;2022-07-17T02:14:31;13.30;99.90
11003;DHT22;5554;55.796;13.090;2022-07-17T02:16:58;13.40;99.90
11003;DHT22;5554;55.796;13.090;2022-07-17T02:19:25;13.30;99.90
11003;DHT22;5554;55.796;13.090;2022-07-17T02:21:52;13.20;99.90
11003;DHT22;5554;55.796;13.090;2022-07-17T02:24:19;13.30;99.90
11003;DHT22;5554;55.796;13.090;2022-07-17T02:26:46;13.30;99.90
11003;DHT22;5554;55.796;13.090;2022-07-17T02:29:13;13.30;99.90
11003;DHT22;5554;55.796;13.090;2022-07-17T02:31:41;13.40;99.90
11003;DHT22;5554;55.796;13.090;2022-07-17T02:34:08;13.40;99.90
11003;DHT22;5554;55.796;13.090;2022-07-17T02:36:35;13.40;99.90
11003;DHT22;5554;55.796;13.090;2022-07-17T02:39:02;13.30;99.90
11003;DHT22;5554;55.796;13.090;2022-07-17T02:41:29;13.40;99.90
11003;DHT22;5554;55.796;13.090;2022-07-17T02:43:56;13.40;99.90
11003;DHT22;5554;55.796;13.090;2022-07-17T02:46:23;13.30;99.90
11003;DHT22;5554;55.796;13.090;2022-07-17T02:48:51;13.30;99.90
11003;DHT22;5554;55.796;13.090;2022-07-17T02:51:18;13.40;99.90
11003;DHT22;5554;55.796;13.090;2022-07-17T02:53:45;13.40;99.90
11003;DHT22;5554;55.796;13.090;2022-07-17T02:56:11;13.40;99.90
11003;DHT22;5554;55.796;13.090;2022-07-17T02:58:38;13.50;99.90
11003;DHT22;5554;55.796;13.090;2022-07-17T03:01:05;13.40;99.90
11003;DHT22;5554;55.796;13.090;2022-07-17T03:03:32;13.40;99.90
11003;DHT22;5554;55.796;13.090;2022-07-17T03:06:01;13.40;99.90
11003;DHT22;5554;55.796;13.090;2022-07-17T03:08:28;13.50;99.90
11003;DHT22;5554;55.796;13.090;2022-07-17T03:10:54;13.60;99.90
11003;DHT22;5554;55.796;13.090;2022-07-17T03:13:21;13.50;99.90
11003;DHT22;5554;55.796;13.090;2022-07-17T03:15:48;13.50;99.90
11003;DHT22;5554;55.796;13.090;2022-07-17T03:18:15;13.50;99.90
11003;DHT22;5554;55.796;13.090;2022-07-17T03:20:42;13.50;99.90
11003;DHT22;5554;55.796;13.090;2022-07-17T03:23:10;13.60;99.90
11003;DHT22;5554;55.796;13.090;2022-07-17T03:25:37;13.60;99.90
11003;DHT22;5554;55.796;13.090;2022-07-17T03:28:04;13.70;99.90
11003;DHT22;5554;55.796;13.090;2022-07-17T03:30:31;13.70;99.90
11003;DHT22;5554;55.796;13.090;2022-07-17T03:32:58;13.70;99.90
11003;DHT22;5554;55.796;13.090;2022-07-17T03:35:25;13.60;99.90
11003;DHT22;5554;55.796;13.090;2022-07-17T03:37:52;13.70;99.90
11003;DHT22;5554;55.796;13.090;2022-07-17T03:40:20;13.60;99.90
11003;DHT22;5554;55.796;13.090;2022-07-17T03:42:47;13.70;99.90
11003;DHT22;5554;55.796;13.090;2022-07-17T03:45:14;13.80;99.90
11003;DHT22;5554;55.796;13.090;2022-07-17T03:47:40;13.80;99.90
11003;DHT22;5554;55.796;13.090;2022-07-17T03:50:07;13.80;99.90
11003;DHT22;5554;55.796;13.090;2022-07-17T03:52:35;13.80;99.90
11003;DHT22;5554;55.796;13.090;2022-07-17T03:55:02;13.90;99.90
11003;DHT22;5554;55.796;13.090;2022-07-17T03:57:30;13.80;99.90
11003;DHT22;5554;55.796;13.090;2022-07-17T03:59:57;13.80;99.90
11003;DHT22;5554;55.796;13.090;2022-07-17T04:02:24;13.80;99.90
11003;DHT22;5554;55.796;13.090;2022-07-17T04:04:51;13.80;99.90
11003;DHT22;5554;55.796;13.090;2022-07-17T04:07:18;13.90;99.90
11003;DHT22;5554;55.796;13.090;2022-07-17T04:09:55;13.90;99.90
11003;DHT22;5554;55.796;13.090;2022-07-17T04:12:22;13.90;99.90
11003;DHT22;5554;55.796;13.090;2022-07-17T04:14:51;14.00;99.90
11003;DHT22;5554;55.796;13.090;2022-07-17T04:17:17;14.00;99.90
11003;DHT22;5554;55.796;13.090;2022-07-17T04:19:44;14.00;99.90
11003;DHT22;5554;55.796;13.090;2022-07-17T04:22:12;14.10;99.90
11003;DHT22;5554;55.796;13.090;2022-07-17T04:24:40;14.10;99.90
11003;DHT22;5554;55.796;13.090;2022-07-17T04:27:07;14.10;99.90
11003;DHT22;5554;55.796;13.090;2022-07-17T04:29:34;14.10;99.90
11003;DHT22;5554;55.796;13.090;2022-07-17T04:32:04;14.10;99.90
11003;DHT22;5554;55.796;13.090;2022-07-17T04:34:32;14.20;99.90
11003;DHT22;5554;55.796;13.090;2022-07-17T04:36:59;14.20;99.90
11003;DHT22;5554;55.796;13.090;2022-07-17T04:39:27;14.20;99.90
11003;DHT22;5554;55.796;13.090;2022-07-17T04:41:54;14.20;99.90
11003;DHT22;5554;55.796;13.090;2022-07-17T04:44:21;14.20;99.90
11003;DHT22;5554;55.796;13.090;2022-07-17T04:46:48;14.20;99.90
11003;DHT22;5554;55.796;13.090;2022-07-17T04:49:17;14.20;99.90
11003;DHT22;5554;55.796;13.090;2022-07-17T04:51:43;14.30;99.90
11003;DHT22;5554;55.796;13.090;2022-07-17T04:54:10;14.30;99.90
11003;DHT22;5554;55.796;13.090;2022-07-17T04:56:37;14.40;99.90
11003;DHT22;5554;55.796;13.090;2022-07-17T04:59:04;14.40;99.90
11003;DHT22;5554;55.796;13.090;2022-07-17T05:01:31;14.40;99.90
11003;DHT22;5554;55.796;13.090;2022-07-17T05:03:58;14.50;99.90
11003;DHT22;5554;55.796;13.090;2022-07-17T05:06:26;14.60;99.90
11003;DHT22;5554;55.796;13.090;2022-07-17T05:08:53;14.70;99.90
11003;DHT22;5554;55.796;13.090;2022-07-17T05:11:20;14.60;99.90
11003;DHT22;5554;55.796;13.090;2022-07-17T05:13:47;14.70;99.90
11003;DHT22;5554;55.796;13.090;2022-07-17T05:16:14;14.70;99.90
11003;DHT22;5554;55.796;13.090;2022-07-17T05:18:41;14.60;99.90
11003;DHT22;5554;55.796;13.090;2022-07-17T05:21:08;14.60;99.90
11003;DHT22;5554;55.796;13.090;2022-07-17T05:23:36;14.50;99.90
11003;DHT22;5554;55.796;13.090;2022-07-17T05:26:03;14.50;99.90
11003;DHT22;5554;55.796;13.090;2022-07-17T05:28:30;14.40;99.90
11003;DHT22;5554;55.796;13.090;2022-07-17T05:30:57;14.40;99.90
11003;DHT22;5554;55.796;13.090;2022-07-17T05:33:23;14.50;99.90
11003;DHT22;5554;55.796;13.090;2022-07-17T05:35:50;14.50;99.90
11003;DHT22;5554;55.796;13.090;2022-07-17T05:38:17;14.50;99.90
11003;DHT22;5554;55.796;13.090;2022-07-17T05:40:45;14.50;99.90
11003;DHT22;5554;55.796;13.090;2022-07-17T05:43:12;14.60;99.90
11003;DHT22;5554;55.796;13.090;2022-07-17T05:45:41;14.50;99.90
11003;DHT22;5554;55.796;13.090;2022-07-17T05:48:07;14.50;99.90
11003;DHT22;5554;55.796;13.090;2022-07-17T05:50:35;14.50;99.90
11003;DHT22;5554;55.796;13.090;2022-07-17T05:53:02;14.50;99.90
11003;DHT22;5554;55.796;13.090;2022-07-17T05:55:29;14.60;99.90
11003;DHT22;5554;55.796;13.090;2022-07-17T05:57:57;14.60;99.90
11003;DHT22;5554;55.796;13.090;2022-07-17T06:00:24;14.60;99.90
11003;DHT22;5554;55.796;13.090;2022-07-17T06:02:51;14.70;99.90
11003;DHT22;5554;55.796;13.090;2022-07-17T06:05:18;14.70;99.90
11003;DHT22;5554;55.796;13.090;2022-07-17T06:07:45;14.70;99.90
11003;DHT22;5554;55.796;13.090;2022-07-17T06:10:12;14.80;99.90
11003;DHT22;5554;55.796;13.090;2022-07-17T06:12:39;14.80;99.90
11003;DHT22;5554;55.796;13.090;2022-07-17T06:15:08;15.10;99.90
11003;DHT22;5554;55.796;13.090;2022-07-17T06:17:35;15.10;99.90
11003;DHT22;5554;55.796;13.090;2022-07-17T06:20:02;15.10;99.90
11003;DHT22;5554;55.796;13.090;2022-07-17T06:22:29;15.10;99.90
11003;DHT22;5554;55.796;13.090;2022-07-17T06:24:56;15.10;99.90
11003;DHT22;5554;55.796;13.090;2022-07-17T06:27:23;15.00;99.90
11003;DHT22;5554;55.796;13.090;2022-07-17T06:29:51;14.90;99.90
11003;DHT22;5554;55.796;13.090;2022-07-17T06:32:19;15.00;99.90
11003;DHT22;5554;55.796;13.090;2022-07-17T06:34:46;15.00;99.90
11003;DHT22;5554;55.796;13.090;2022-07-17T06:37:13;15.00;99.90
11003;DHT22;5554;55.796;13.090;2022-07-17T06:39:39;14.90;99.90
11003;DHT22;5554;55.796;13.090;2022-07-17T06:42:06;14.90;99.90
11003;DHT22;5554;55.796;13.090;2022-07-17T06:44:33;15.00;99.90
11003;DHT22;5554;55.796;13.090;2022-07-17T06:47:00;15.10;99.90
11003;DHT22;5554;55.796;13.090;2022-07-17T06:49:29;15.10;99.90
11003;DHT22;5554;55.796;13.090;2022-07-17T06:51:55;15.00;99.90
11003;DHT22;5554;55.796;13.090;2022-07-17T06:54:23;15.10;99.90
11003;DHT22;5554;55.796;13.090;2022-07-17T06:56:51;15.00;99.90
11003;DHT22;5554;55.796;13.090;2022-07-17T06:59:18;15.10;99.90
11003;DHT22;5554;55.796;13.090;2022-07-17T07:01:46;15.20;99.90
11003;DHT22;5554;55.796;13.090;2022-07-17T07:04:13;15.30;99.90
11003;DHT22;5554;55.796;13.090;2022-07-17T07:06:41;15.30;99.90
11003;DHT22;5554;55.796;13.090;2022-07-17T07:09:08;15.30;99.90
11003;DHT22;5554;55.796;13.090;2022-07-17T07:11:36;15.30;99.90
11003;DHT22;5554;55.796;13.090;2022-07-17T07:14:03;15.30;99.90
11003;DHT22;5554;55.796;13.090;2022-07-17T07:16:30;15.50;99.90
11003;DHT22;5554;55.796;13.090;2022-07-17T07:18:57;15.60;99.90
11003;DHT22;5554;55.796;13.090;2022-07-17T07:21:24;15.70;99.90
11003;DHT22;5554;55.796;13.090;2022-07-17T07:23:53;15.80;99.90
11003;DHT22;5554;55.796;13.090;2022-07-17T07:26:20;15.90;99.90
11003;DHT22;5554;55.796;13.090;2022-07-17T07:29:01;16.00;99.90
11003;DHT22;5554;55.796;13.090;2022-07-17T07:31:27;16.00;99.90
11003;DHT22;5554;55.796;13.090;2022-07-17T07:33:54;16.20;99.90
11003;DHT22;5554;55.796;13.090;2022-07-17T07:36:21;16.10;99.90
11003;DHT22;5554;55.796;13.090;2022-07-17T07:38:48;16.00;99.90
11003;DHT22;5554;55.796;13.090;2022-07-17T07:41:16;16.00;99.90
11003;DHT22;5554;55.796;13.090;2022-07-17T07:43:43;15.90;99.90
11003;DHT22;5554;55.796;13.090;2022-07-17T07:46:10;15.90;99.90
11003;DHT22;5554;55.796;13.090;2022-07-17T07:48:37;16.00;99.90
11003;DHT22;5554;55.796;13.090;2022-07-17T07:51:04;16.00;99.90
11003;DHT22;5554;55.796;13.090;2022-07-17T07:53:31;16.10;99.90
11003;DHT22;5554;55.796;13.090;2022-07-17T07:55:58;16.20;99.90
11003;DHT22;5554;55.796;13.090;2022-07-17T07:58:27;16.00;99.90
11003;DHT22;5554;55.796;13.090;2022-07-17T08:00:53;15.80;99.90
11003;DHT22;5554;55.796;13.090;2022-07-17T08:03:20;15.70;99.90
11003;DHT22;5554;55.796;13.090;2022-07-17T08:05:47;15.70;99.90
11003;DHT22;5554;55.796;13.090;2022-07-17T08:08:15;16.00;99.90
11003;DHT22;5554;55.796;13.090;2022-07-17T08:10:42;16.10;99.90
11003;DHT22;5554;55.796;13.090;2022-07-17T08:13:08;16.30;99.90
11003;DHT22;5554;55.796;13.090;2022-07-17T08:15:37;16.40;99.90
11003;DHT22;5554;55.796;13.090;2022-07-17T08:18:04;16.30;99.90
11003;DHT22;5554;55.796;13.090;2022-07-17T08:20:31;16.40;99.90
11003;DHT22;5554;55.796;13.090;2022-07-17T08:22:58;16.30;99.90
11003;DHT22;5554;55.796;13.090;2022-07-17T08:25:25;16.40;99.90
11003;DHT22;5554;55.796;13.090;2022-07-17T08:27:52;16.50;99.90
11003;DHT22;5554;55.796;13.090;2022-07-17T08:30:21;16.60;99.90
11003;DHT22;5554;55.796;13.090;2022-07-17T08:32:49;16.70;99.90
11003;DHT22;5554;55.796;13.090;2022-07-17T08:35:16;16.70;99.90
11003;DHT22;5554;55.796;13.090;2022-07-17T08:37:44;16.80;99.90
11003;DHT22;5554;55.796;13.090;2022-07-17T08:40:20;16.60;99.90
11003;DHT22;5554;55.796;13.090;2022-07-17T08:42:47;16.70;99.90
11003;DHT22;5554;55.796;13.090;2022-07-17T08:45:14;16.60;99.90
11003;DHT22;5554;55.796;13.090;2022-07-17T08:47:41;16.60;99.90
11003;DHT22;5554;55.796;13.090;2022-07-17T08:50:10;16.70;99.90
11003;DHT22;5554;55.796;13.090;2022-07-17T08:52:38;16.60;99.90
11003;DHT22;5554;55.796;13.090;2022-07-17T08:55:08;16.70;99.90
11003;DHT22;5554;55.796;13.090;2022-07-17T08:57:38;17.00;66.80
11003;DHT22;5554;55.796;13.090;2022-07-17T09:00:06;17.00;99.90
11003;DHT22;5554;55.796;13.090;2022-07-17T09:02:37;17.40;99.40
11003;DHT22;5554;55.796;13.090;2022-07-17T09:08:30;17.90;76.10
11003;DHT22;5554;55.796;13.090;2022-07-17T09:11:05;18.20;99.90
11003;DHT22;5554;55.796;13.090;2022-07-17T09:13:33;18.50;99.90
11003;DHT22;5554;55.796;13.090;2022-07-17T09:16:08;19.00;99.90
11003;DHT22;5554;55.796;13.090;2022-07-17T09:18:43;19.10;99.90
11003;DHT22;5554;55.796;13.090;2022-07-17T09:21:17;18.70;1.00
11003;DHT22;5554;55.796;13.090;2022-07-17T09:23:56;18.80;99.90
11003;DHT22;5554;55.796;13.090;2022-07-17T09:26:23;18.30;1.00
11003;DHT22;5554;55.796;13.090;2022-07-17T09:32:05;17.90;1.00
11003;DHT22;5554;55.796;13.090;2022-07-17T09:34:43;18.50;1.00
11003;DHT22;5554;55.796;13.090;2022-07-17T09:37:10;18.80;78.50
11003;DHT22;5554;55.796;13.090;2022-07-17T09:39:41;19.00;1.00
11003;DHT22;5554;55.796;13.090;2022-07-17T09:42:08;19.40;1.00
11003;DHT22;5554;55.796;13.090;2022-07-17T09:44:36;19.30;99.90
11003;DHT22;5554;55.796;13.090;2022-07-17T09:47:04;19.30;1.00
11003;DHT22;5554;55.796;13.090;2022-07-17T09:49:31;19.30;1.00
11003;DHT22;5554;55.796;13.090;2022-07-17T09:52:13;19.40;1.00
11003;DHT22;5554;55.796;13.090;2022-07-17T09:54:44;19.20;99.90
11003;DHT22;5554;55.796;13.090;2022-07-17T09:57:14;19.60;99.90
11003;DHT22;5554;55.796;13.090;2022-07-17T09:59:41;18.90;5.40
11003;DHT22;5554;55.796;13.090;2022-07-17T10:02:09;18.70;1.00
11003;DHT22;5554;55.796;13.090;2022-07-17T10:04:37;18.90;1.00
11003;DHT22;5554;55.796;13.090;2022-07-17T10:10:20;20.10;1.00
11003;DHT22;5554;55.796;13.090;2022-07-17T10:15:40;19.90;99.90
11003;DHT22;5554;55.796;13.090;2022-07-17T10:18:07;19.70;5.80
11003;DHT22;5554;55.796;13.090;2022-07-17T10:20:34;20.10;1.00
11003;DHT22;5554;55.796;13.090;2022-07-17T10:23:12;20.60;1.00
11003;DHT22;5554;55.796;13.090;2022-07-17T10:25:41;21.40;1.00
11003;DHT22;5554;55.796;13.090;2022-07-17T10:28:08;22.00;99.90
11003;DHT22;5554;55.796;13.090;2022-07-17T10:30:41;21.20;1.00
11003;DHT22;5554;55.796;13.090;2022-07-17T10:33:08;21.50;1.00
11003;DHT22;5554;55.796;13.090;2022-07-17T10:38:47;20.70;9.30
11003;DHT22;5554;55.796;13.090;2022-07-17T10:41:20;21.30;1.00
11003;DHT22;5554;55.796;13.090;2022-07-17T10:43:48;21.60;1.00
11003;DHT22;5554;55.796;13.090;2022-07-17T10:46:16;21.70;1.00
11003;DHT22;5554;55.796;13.090;2022-07-17T10:48:50;22.50;99.90
11003;DHT22;5554;55.796;13.090;2022-07-17T10:54:09;22.80;99.90
11003;DHT22;5554;55.796;13.090;2022-07-17T10:56:39;22.60;1.00
11003;DHT22;5554;55.796;13.090;2022-07-17T10:59:06;22.50;1.00
11003;DHT22;5554;55.796;13.090;2022-07-17T11:01:34;22.60;1.00
11003;DHT22;5554;55.796;13.090;2022-07-17T11:04:01;22.60;99.90
11003;DHT22;5554;55.796;13.090;2022-07-17T11:06:31;22.60;99.90
11003;DHT22;5554;55.796;13.090;2022-07-17T11:09:01;22.80;99.90
11003;DHT22;5554;55.796;13.090;2022-07-17T11:11:40;22.90;99.90
11003;DHT22;5554;55.796;13.090;2022-07-17T11:14:09;22.80;90.10
11003;DHT22;5554;55.796;13.090;2022-07-17T11:16:37;22.60;1.00
11003;DHT22;5554;55.796;13.090;2022-07-17T11:19:07;22.90;1.00
11003;DHT22;5554;55.796;13.090;2022-07-17T11:21:45;22.50;1.00
11003;DHT22;5554;55.796;13.090;2022-07-17T11:24:12;22.50;1.00
11003;DHT22;5554;55.796;13.090;2022-07-17T11:26:42;22.40;1.00
11003;DHT22;5554;55.796;13.090;2022-07-17T11:29:09;22.80;1.00
11003;DHT22;5554;55.796;13.090;2022-07-17T11:31:37;23.00;1.00
11003;DHT22;5554;55.796;13.090;2022-07-17T11:34:05;23.40;1.00
11003;DHT22;5554;55.796;13.090;2022-07-17T11:36:36;22.80;1.00
11003;DHT22;5554;55.796;13.090;2022-07-17T11:39:06;23.10;1.00
11003;DHT22;5554;55.796;13.090;2022-07-17T11:41:37;22.90;99.90
11003;DHT22;5554;55.796;13.090;2022-07-17T11:44:09;23.30;99.90
11003;DHT22;5554;55.796;13.090;2022-07-17T11:46:37;23.10;99.90
11003;DHT22;5554;55.796;13.090;2022-07-17T11:49:05;23.10;99.90
11003;DHT22;5554;55.796;13.090;2022-07-17T11:51:37;23.30;99.90
11003;DHT22;5554;55.796;13.090;2022-07-17T11:54:07;23.30;99.90
11003;DHT22;5554;55.796;13.090;2022-07-17T11:56:34;23.70;99.90
11003;DHT22;5554;55.796;13.090;2022-07-17T11:59:02;24.30;99.90
11003;DHT22;5554;55.796;13.090;2022-07-17T12:01:38;24.50;99.90
11003;DHT22;5554;55.796;13.090;2022-07-17T12:04:07;24.10;99.90
11003;DHT22;5554;55.796;13.090;2022-07-17T12:06:34;23.70;99.90
11003;DHT22;5554;55.796;13.090;2022-07-17T12:09:01;23.00;99.90
11003;DHT22;5554;55.796;13.090;2022-07-17T12:11:28;22.80;99.90
11003;DHT22;5554;55.796;13.090;2022-07-17T12:14:03;23.00;99.90
11003;DHT22;5554;55.796;13.090;2022-07-17T12:16:35;23.50;99.90
11003;DHT22;5554;55.796;13.090;2022-07-17T12:19:13;23.10;99.90
11003;DHT22;5554;55.796;13.090;2022-07-17T12:21:49;23.10;99.90
11003;DHT22;5554;55.796;13.090;2022-07-17T12:24:24;23.20;99.90
11003;DHT22;5554;55.796;13.090;2022-07-17T12:26:53;22.70;99.90
11003;DHT22;5554;55.796;13.090;2022-07-17T12:29:20;23.00;99.90
11003;DHT22;5554;55.796;13.090;2022-07-17T12:31:59;23.20;99.90
11003;DHT22;5554;55.796;13.090;2022-07-17T12:34:26;22.70;99.90
11003;DHT22;5554;55.796;13.090;2022-07-17T12:36:57;22.50;99.90
11003;DHT22;5554;55.796;13.090;2022-07-17T12:39:24;22.70;99.90
11003;DHT22;5554;55.796;13.090;2022-07-17T12:41:57;22.40;99.90
11003;DHT22;5554;55.796;13.090;2022-07-17T12:44:34;22.50;99.90
11003;DHT22;5554;55.796;13.090;2022-07-17T12:47:06;22.30;99.90
11003;DHT22;5554;55.796;13.090;2022-07-17T12:49:33;22.30;99.90
11003;DHT22;5554;55.796;13.090;2022-07-17T12:52:05;22.70;1.00
11003;DHT22;5554;55.796;13.090;2022-07-17T12:54:46;22.60;1.00
11003;DHT22;5554;55.796;13.090;2022-07-17T13:00:34;22.20;1.00
11003;DHT22;5554;55.796;13.090;2022-07-17T13:03:25;22.60;1.00
11003;DHT22;5554;55.796;13.090;2022-07-17T13:05:57;22.40;1.00
11003;DHT22;5554;55.796;13.090;2022-07-17T13:08:38;22.70;1.00
11003;DHT22;5554;55.796;13.090;2022-07-17T13:11:51;22.80;1.00
11003;DHT22;5554;55.796;13.090;2022-07-17T13:14:35;23.00;1.00
11003;DHT22;5554;55.796;13.090;2022-07-17T13:17:05;22.70;1.00
11003;DHT22;5554;55.796;13.090;2022-07-17T13:19:33;23.70;1.00
11003;DHT22;5554;55.796;13.090;2022-07-17T13:22:01;23.20;1.00
11003;DHT22;5554;55.796;13.090;2022-07-17T13:25:01;23.10;1.00
11003;DHT22;5554;55.796;13.090;2022-07-17T13:27:28;22.90;1.00
11003;DHT22;5554;55.796;13.090;2022-07-17T13:29:58;22.40;1.00
11003;DHT22;5554;55.796;13.090;2022-07-17T13:32:34;22.10;1.00
11003;DHT22;5554;55.796;13.090;2022-07-17T13:35:06;21.90;1.00
11003;DHT22;5554;55.796;13.090;2022-07-17T13:37:33;21.40;1.00
11003;DHT22;5554;55.796;13.090;2022-07-17T13:40:03;21.10;1.00
11003;DHT22;5554;55.796;13.090;2022-07-17T13:42:30;20.70;1.00
11003;DHT22;5554;55.796;13.090;2022-07-17T13:44:57;20.60;1.00
11003;DHT22;5554;55.796;13.090;2022-07-17T13:47:24;20.50;1.00
11003;DHT22;5554;55.796;13.090;2022-07-17T13:49:51;20.60;61.80
11003;DHT22;5554;55.796;13.090;2022-07-17T13:52:20;20.60;99.90
11003;DHT22;5554;55.796;13.090;2022-07-17T13:54:47;20.70;99.90
11003;DHT22;5554;55.796;13.090;2022-07-17T13:57:15;20.60;99.90
11003;DHT22;5554;55.796;13.090;2022-07-17T13:59:46;20.70;99.90
11003;DHT22;5554;55.796;13.090;2022-07-17T14:02:14;20.70;99.90
11003;DHT22;5554;55.796;13.090;2022-07-17T14:04:41;20.40;99.90
11003;DHT22;5554;55.796;13.090;2022-07-17T14:07:08;20.30;99.90
11003;DHT22;5554;55.796;13.090;2022-07-17T14:09:36;20.60;1.00
11003;DHT22;5554;55.796;13.090;2022-07-17T14:12:03;20.90;1.00
11003;DHT22;5554;55.796;13.090;2022-07-17T14:14:33;21.10;1.00
11003;DHT22;5554;55.796;13.090;2022-07-17T14:17:11;20.90;1.00
11003;DHT22;5554;55.796;13.090;2022-07-17T14:19:38;21.20;1.00
11003;DHT22;5554;55.796;13.090;2022-07-17T14:22:05;21.30;1.00
11003;DHT22;5554;55.796;13.090;2022-07-17T14:27:22;21.30;1.00
11003;DHT22;5554;55.796;13.090;2022-07-17T14:29:49;21.50;1.00
11003;DHT22;5554;55.796;13.090;2022-07-17T14:32:20;21.80;1.00
11003;DHT22;5554;55.796;13.090;2022-07-17T14:34:47;21.60;1.00
11003;DHT22;5554;55.796;13.090;2022-07-17T14:37:15;21.40;1.00
11003;DHT22;5554;55.796;13.090;2022-07-17T14:39:42;21.20;99.90
11003;DHT22;5554;55.796;13.090;2022-07-17T14:42:09;21.10;99.90
11003;DHT22;5554;55.796;13.090;2022-07-17T14:44:38;21.10;99.90
11003;DHT22;5554;55.796;13.090;2022-07-17T14:47:05;20.90;99.90
11003;DHT22;5554;55.796;13.090;2022-07-17T14:49:36;20.90;99.90
11003;DHT22;5554;55.796;13.090;2022-07-17T14:52:04;21.20;99.90
11003;DHT22;5554;55.796;13.090;2022-07-17T14:54:31;21.50;1.00
11003;DHT22;5554;55.796;13.090;2022-07-17T14:56:58;21.60;1.00
11003;DHT22;5554;55.796;13.090;2022-07-17T14:59:25;21.50;1.00
11003;DHT22;5554;55.796;13.090;2022-07-17T15:01:54;20.90;99.90
11003;DHT22;5554;55.796;13.090;2022-07-17T15:04:21;20.70;99.90
11003;DHT22;5554;55.796;13.090;2022-07-17T15:06:48;20.50;99.90
11003;DHT22;5554;55.796;13.090;2022-07-17T15:09:15;20.60;99.90
11003;DHT22;5554;55.796;13.090;2022-07-17T15:11:42;20.60;99.90
11003;DHT22;5554;55.796;13.090;2022-07-17T15:14:09;20.70;99.90
11003;DHT22;5554;55.796;13.090;2022-07-17T15:19:34;20.90;1.00
11003;DHT22;5554;55.796;13.090;2022-07-17T15:22:01;20.80;1.00
11003;DHT22;5554;55.796;13.090;2022-07-17T15:24:28;20.70;1.00
11003;DHT22;5554;55.796;13.090;2022-07-17T15:26:55;20.70;1.00
11003;DHT22;5554;55.796;13.090;2022-07-17T15:29:22;20.70;1.00
11003;DHT22;5554;55.796;13.090;2022-07-17T15:31:50;20.80;1.00
11003;DHT22;5554;55.796;13.090;2022-07-17T15:34:17;20.70;1.00
11003;DHT22;5554;55.796;13.090;2022-07-17T15:36:46;21.10;1.00
11003;DHT22;5554;55.796;13.090;2022-07-17T15:39:21;20.70;90.40
11003;DHT22;5554;55.796;13.090;2022-07-17T15:41:48;20.70;1.00
11003;DHT22;5554;55.796;13.090;2022-07-17T15:44:29;20.60;1.00
11003;DHT22;5554;55.796;13.090;2022-07-17T15:46:56;20.40;1.00
11003;DHT22;5554;55.796;13.090;2022-07-17T15:49:23;20.30;1.00
11003;DHT22;5554;55.796;13.090;2022-07-17T15:51:54;20.20;49.60
11003;DHT22;5554;55.796;13.090;2022-07-17T15:54:21;20.30;99.90
11003;DHT22;5554;55.796;13.090;2022-07-17T15:56:48;20.50;99.90
11003;DHT22;5554;55.796;13.090;2022-07-17T15:59:16;20.50;99.90
11003;DHT22;5554;55.796;13.090;2022-07-17T16:01:45;20.60;99.90
11003;DHT22;5554;55.796;13.090;2022-07-17T16:04:12;20.80;99.90
11003;DHT22;5554;55.796;13.090;2022-07-17T16:06:39;20.70;1.00
11003;DHT22;5554;55.796;13.090;2022-07-17T16:09:10;20.60;99.90
11003;DHT22;5554;55.796;13.090;2022-07-17T16:11:39;20.50;99.90